Novi Sad, Serbia
Current Conditions -  °F | °C
As of 2:00 AM on Thursday 23 Oct 2014 (Local Time) from LYBT Reporting Station
Broken Clouds Broken Clouds  
Wind Chill: 37°   Ceiling: 4000
Heat Index: 43°   Visibility: 6mi
Dew Point: 43°   Wind: 12mph
Humidity: 100%   Direction: 280°W
Pressure: 29.71"   Gusts: NA
Location:  45.25°N, 19.85°E
Report Text: LYBT 230000Z 28010KT 9999 SCT005 BKN040 06/06 Q1006 NOSIG
Loading
Personal Weather Stations






























Interactive Weather Map
Tropical Storm Tracking
New forecast layout! Learn more

10-Day Weather Forecast

Advertisements
Track Severe Weather on mobile